Holy Cross, Alaska
Current Conditions -  °F | °C
As of 11:56 AM on Monday 22 Dec 2014 (Local Time) from PAHC Reporting Station
Unknown Precip Unknown Precip  
Wind Chill:   Ceiling: 3400
Heat Index:   Visibility: 10mi
Dew Point:   Wind: 0mph
Humidity: 80%   Direction: NA
Pressure: 29.94"   Gusts: NA
Location:  62.2°N, 159.77°W
Report Text: PAHC 222056Z AUTO 00000KT 10SM UP BKN034 M13/M16 A2994 RMK AO2 TSNO 51019 60000 T11331161 UPE26B47 P0000 SLP143 $
Loading
Personal Weather Stations






























Interactive Weather Map New forecast layout! Learn more

10-Day Weather Forecast

Advertisements
Track Severe Weather on mobile